createdAt,value
2023-10-07T00:02:17.035Z,14.07
2023-10-07T00:04:45.950Z,16.40
2023-10-07T00:07:15.948Z,10.55
2023-10-07T00:09:44.716Z,11.50
2023-10-07T00:12:17.174Z,11.50
2023-10-07T00:14:47.474Z,11.70
2023-10-07T00:17:18.300Z,11.40
2023-10-07T00:19:47.422Z,14.20
2023-10-07T00:22:16.033Z,12.25
2023-10-07T00:24:47.320Z,15.10
2023-10-07T00:27:28.252Z,11.52
2023-10-07T00:29:55.825Z,7.90
2023-10-07T00:32:29.820Z,10.43
2023-10-07T00:34:57.574Z,11.90
2023-10-07T00:37:25.327Z,8.82
2023-10-07T00:39:53.423Z,11.07
2023-10-07T00:42:20.922Z,10.40
2023-10-07T00:44:48.666Z,11.27
2023-10-07T00:47:16.057Z,12.90
2023-10-07T00:49:51.745Z,8.65
2023-10-07T00:52:26.770Z,12.65
2023-10-07T00:55:06.947Z,10.05
2023-10-07T00:57:34.232Z,7.75
2023-10-07T01:00:05.704Z,11.98
2023-10-07T01:02:33.133Z,10.23
2023-10-07T01:05:01.993Z,9.73
2023-10-07T01:07:29.322Z,9.18
2023-10-07T01:10:23.635Z,10.70
2023-10-07T01:12:52.674Z,12.65
2023-10-07T01:15:24.614Z,10.30
2023-10-07T01:17:58.382Z,7.38
2023-10-07T01:20:35.491Z,8.32
2023-10-07T01:23:05.310Z,11.77
2023-10-07T01:25:36.724Z,15.60
2023-10-07T01:28:05.839Z,9.60
2023-10-07T01:30:36.268Z,9.45
2023-10-07T01:33:10.331Z,12.32
2023-10-07T01:35:41.238Z,11.00
2023-10-07T01:38:09.115Z,12.52
2023-10-07T01:40:56.686Z,12.75
2023-10-07T01:43:25.910Z,9.27
2023-10-07T01:45:54.727Z,12.50
2023-10-07T01:48:22.222Z,9.18
2023-10-07T01:50:51.354Z,11.63
2023-10-07T01:53:18.675Z,12.57
2023-10-07T01:55:47.257Z,16.98
2023-10-07T01:58:15.856Z,12.88
2023-10-07T02:00:47.644Z,12.27
2023-10-07T02:03:18.075Z,10.95
2023-10-07T02:05:49.847Z,9.65
2023-10-07T02:08:23.376Z,12.50
2023-10-07T02:10:58.968Z,14.60
2023-10-07T02:13:29.401Z,14.00
2023-10-07T02:15:56.630Z,14.25
2023-10-07T02:18:24.019Z,18.83
2023-10-07T02:21:11.389Z,13.07
2023-10-07T02:23:41.686Z,12.23
2023-10-07T02:26:16.013Z,9.73
2023-10-07T02:28:52.654Z,13.10
2023-10-07T02:31:24.468Z,11.85
2023-10-07T02:33:53.561Z,11.77
2023-10-07T02:36:45.217Z,9.02
2023-10-07T02:39:32.608Z,10.73
2023-10-07T02:42:00.060Z,10.38
2023-10-07T02:44:29.136Z,11.43
2023-10-07T02:46:58.054Z,10.27
2023-10-07T02:49:26.592Z,13.10
2023-10-07T02:51:57.391Z,10.98
2023-10-07T02:54:33.381Z,13.55
2023-10-07T02:59:37.273Z,13.80
2023-10-07T03:02:18.300Z,10.07
2023-10-07T03:05:11.629Z,11.02
2023-10-07T03:07:42.981Z,11.23
2023-10-07T03:10:19.981Z,10.77
2023-10-07T03:12:58.145Z,14.48
2023-10-07T03:15:42.553Z,10.68
2023-10-07T03:18:31.661Z,12.80
2023-10-07T03:21:07.623Z,12.43
2023-10-07T03:26:04.689Z,14.05
2023-10-07T03:28:37.298Z,10.50
2023-10-07T03:31:10.259Z,8.32
2023-10-07T03:33:50.364Z,16.10
2023-10-07T03:36:24.613Z,10.25
2023-10-07T03:39:11.957Z,8.00
2023-10-07T03:41:43.001Z,9.90
2023-10-07T03:44:10.516Z,14.93
2023-10-07T03:46:39.438Z,15.10
2023-10-07T03:49:08.292Z,9.13
2023-10-07T03:51:36.489Z,13.50
2023-10-07T03:54:13.077Z,16.17
2023-10-07T03:56:40.535Z,12.30
2023-10-07T03:59:07.496Z,13.02
2023-10-07T04:01:35.015Z,12.63
2023-10-07T04:04:02.431Z,18.73
2023-10-07T04:06:32.899Z,11.75
2023-10-07T04:09:13.277Z,13.20
2023-10-07T04:11:49.382Z,10.93
2023-10-07T04:17:01.417Z,9.80
2023-10-07T04:19:29.136Z,9.98
2023-10-07T04:21:56.710Z,13.63
2023-10-07T04:24:32.624Z,16.85
2023-10-07T04:27:07.243Z,12.35
2023-10-07T04:29:34.664Z,10.93
2023-10-07T04:32:22.098Z,11.63
2023-10-07T04:35:08.247Z,12.07
2023-10-07T04:37:48.902Z,10.00
2023-10-07T04:40:16.584Z,12.50
2023-10-07T04:43:02.698Z,12.80
2023-10-07T04:45:49.961Z,10.77
2023-10-07T04:48:42.186Z,9.70
2023-10-07T04:51:13.413Z,11.18
2023-10-07T04:53:41.106Z,11.98
2023-10-07T04:56:09.253Z,11.80
2023-10-07T04:58:41.002Z,11.65
2023-10-07T05:01:38.010Z,9.57
2023-10-07T05:04:06.607Z,10.77
2023-10-07T05:06:37.405Z,9.65
2023-10-07T05:09:10.391Z,12.25
2023-10-07T05:11:39.173Z,11.65
2023-10-07T05:14:09.395Z,11.80
2023-10-07T05:16:38.229Z,9.65
2023-10-07T05:19:21.241Z,11.45
2023-10-07T05:22:11.100Z,9.73
2023-10-07T05:24:39.887Z,15.80
2023-10-07T05:27:07.338Z,11.02
2023-10-07T05:29:34.756Z,14.75
2023-10-07T05:32:02.609Z,12.15
2023-10-07T05:34:30.968Z,14.38
2023-10-07T05:37:12.926Z,13.27
2023-10-07T05:39:44.052Z,13.98
2023-10-07T05:42:13.190Z,11.95
2023-10-07T05:44:41.493Z,16.00
2023-10-07T05:47:10.829Z,11.70
2023-10-07T05:49:39.264Z,14.02
2023-10-07T05:52:06.603Z,9.55
2023-10-07T05:54:34.833Z,12.88
2023-10-07T05:57:05.270Z,12.63
2023-10-07T05:59:36.100Z,11.15
2023-10-07T06:02:08.021Z,13.45
2023-10-07T06:04:36.333Z,14.75
2023-10-07T06:07:03.748Z,14.93
2023-10-07T06:09:31.018Z,12.82
2023-10-07T06:11:58.911Z,13.90
2023-10-07T06:14:26.181Z,14.25
2023-10-07T06:16:56.928Z,14.95
2023-10-07T06:19:25.486Z,14.55
2023-10-07T06:21:52.874Z,10.63
2023-10-07T06:24:23.219Z,10.25
2023-10-07T06:26:51.174Z,18.77
2023-10-07T06:29:20.876Z,13.95
2023-10-07T06:32:14.506Z,12.57
2023-10-07T06:34:46.059Z,12.45
2023-10-07T06:37:14.038Z,14.18
2023-10-07T06:39:41.861Z,13.50
2023-10-07T06:42:11.213Z,11.05
2023-10-07T06:44:42.030Z,15.57
2023-10-07T06:47:12.739Z,13.07
2023-10-07T06:49:41.247Z,11.77
2023-10-07T06:52:08.576Z,14.27
2023-10-07T06:54:35.540Z,12.00
2023-10-07T06:57:05.661Z,11.93
2023-10-07T06:59:33.045Z,19.70
2023-10-07T07:02:07.670Z,14.20
2023-10-07T07:04:36.934Z,9.97
2023-10-07T07:07:13.411Z,11.02
2023-10-07T07:09:47.968Z,12.02
2023-10-07T07:12:19.768Z,12.38
2023-10-07T07:14:54.024Z,9.48
2023-10-07T07:17:32.184Z,15.73
2023-10-07T07:20:11.843Z,14.18
2023-10-07T07:22:45.481Z,10.95
2023-10-07T07:25:20.278Z,12.82
2023-10-07T07:27:49.465Z,15.57
2023-10-07T07:30:33.539Z,9.85
2023-10-07T07:33:07.639Z,10.95
2023-10-07T07:35:45.281Z,13.25
2023-10-07T07:38:33.745Z,13.95
2023-10-07T07:41:27.331Z,11.32
2023-10-07T07:44:00.089Z,11.02
2023-10-07T07:46:30.618Z,12.57
2023-10-07T07:49:07.341Z,9.38
2023-10-07T07:51:42.769Z,11.93
2023-10-07T07:54:10.861Z,13.82
2023-10-07T07:56:43.367Z,8.52
2023-10-07T07:59:16.981Z,11.48
2023-10-07T08:01:53.596Z,18.88
2023-10-07T08:04:41.411Z,11.18
2023-10-07T08:07:20.091Z,11.55
2023-10-07T08:09:51.502Z,8.77
2023-10-07T08:12:35.532Z,13.32
2023-10-07T08:15:15.053Z,15.75
2023-10-07T08:17:46.384Z,10.93
2023-10-07T08:20:14.679Z,13.40
2023-10-07T08:22:47.827Z,10.10
2023-10-07T08:25:26.851Z,8.77
2023-10-07T08:27:56.518Z,9.63
2023-10-07T08:30:38.385Z,11.05
2023-10-07T08:33:13.650Z,10.23
2023-10-07T08:35:44.490Z,10.57
2023-10-07T08:38:31.509Z,10.20
2023-10-07T08:41:06.660Z,10.40
2023-10-07T08:43:47.095Z,16.75
2023-10-07T08:46:18.614Z,14.90
2023-10-07T08:49:06.150Z,118.18
2023-10-07T08:51:42.224Z,121.13
2023-10-07T08:56:55.869Z,47.38
2023-10-07T08:59:28.014Z,34.28
2023-10-07T09:01:58.562Z,16.42
2023-10-07T09:04:33.213Z,11.10
2023-10-07T09:07:01.496Z,9.55
2023-10-07T09:09:39.436Z,9.60
2023-10-07T09:12:19.350Z,13.00
2023-10-07T09:14:58.742Z,9.63
2023-10-07T09:17:29.378Z,12.25
2023-10-07T09:20:00.054Z,7.13
2023-10-07T09:22:35.734Z,10.20
2023-10-07T09:25:20.222Z,8.15
2023-10-07T09:27:59.088Z,9.82
2023-10-07T09:30:36.556Z,10.82
2023-10-07T09:33:15.069Z,11.88
2023-10-07T09:35:44.853Z,14.93
2023-10-07T09:38:30.934Z,11.23
2023-10-07T09:40:58.511Z,8.02
2023-10-07T09:43:28.970Z,7.78
2023-10-07T09:45:59.474Z,11.13
2023-10-07T09:48:35.087Z,12.32
2023-10-07T09:51:03.658Z,9.45
2023-10-07T09:53:58.974Z,8.85
2023-10-07T09:56:45.993Z,9.70
2023-10-07T09:59:38.932Z,10.95
2023-10-07T10:02:44.336Z,8.20
2023-10-07T10:05:30.692Z,10.63
2023-10-07T10:08:13.607Z,11.05
2023-10-07T10:10:46.927Z,11.80
2023-10-07T10:13:30.487Z,14.05
2023-10-07T10:16:02.106Z,11.45
2023-10-07T10:18:41.946Z,15.40
2023-10-07T10:21:14.008Z,13.05
2023-10-07T10:23:43.377Z,16.80
2023-10-07T10:26:15.562Z,14.95
2023-10-07T10:28:44.928Z,11.60
2023-10-07T10:31:20.695Z,7.25
2023-10-07T10:33:51.655Z,12.02
2023-10-07T10:36:23.218Z,13.38
2023-10-07T10:38:50.475Z,13.25
2023-10-07T10:41:37.873Z,12.48
2023-10-07T10:44:08.161Z,9.63
2023-10-07T10:46:48.599Z,9.98
2023-10-07T10:49:17.862Z,12.82
2023-10-07T10:51:47.196Z,13.48
2023-10-07T10:54:16.568Z,13.60
2023-10-07T10:56:58.879Z,12.57
2023-10-07T10:59:49.688Z,9.20
2023-10-07T11:02:24.091Z,20.33
2023-10-07T11:04:54.171Z,9.45
2023-10-07T11:07:23.863Z,15.75
2023-10-07T11:09:53.847Z,10.57
2023-10-07T11:12:27.939Z,14.20
2023-10-07T11:15:15.439Z,11.52
2023-10-07T11:17:43.433Z,7.95
2023-10-07T11:20:14.114Z,8.68
2023-10-07T11:22:41.694Z,8.05
2023-10-07T11:25:15.769Z,9.27
2023-10-07T11:27:48.099Z,7.95
2023-10-07T11:30:18.770Z,7.88
2023-10-07T11:32:45.843Z,7.65
2023-10-07T11:35:29.129Z,13.73
2023-10-07T11:38:00.293Z,12.38
2023-10-07T11:40:31.765Z,9.05
2023-10-07T11:43:05.653Z,8.35
2023-10-07T11:45:33.448Z,7.93
2023-10-07T11:48:00.468Z,9.38
2023-10-07T11:50:36.193Z,7.25
2023-10-07T11:53:04.291Z,7.68
2023-10-07T11:55:34.583Z,9.25
2023-10-07T11:58:02.219Z,9.07
2023-10-07T12:00:30.675Z,8.95
2023-10-07T12:03:01.534Z,10.23
2023-10-07T12:05:29.591Z,7.07
2023-10-07T12:08:03.690Z,8.30
2023-10-07T12:10:38.422Z,7.10
2023-10-07T12:13:08.502Z,10.75
2023-10-07T12:15:39.193Z,6.35
2023-10-07T12:18:08.478Z,9.77
2023-10-07T12:20:35.839Z,8.88
2023-10-07T12:23:03.480Z,5.43
2023-10-07T12:25:32.470Z,9.18
2023-10-07T12:27:59.764Z,6.63
2023-10-07T12:30:28.776Z,10.00
2023-10-07T12:32:55.804Z,6.57
2023-10-07T12:35:24.599Z,9.20
2023-10-07T12:37:54.510Z,7.25
2023-10-07T12:40:21.985Z,8.20
2023-10-07T12:42:53.571Z,6.20
2023-10-07T12:45:21.075Z,10.85
2023-10-07T12:47:52.651Z,8.48
2023-10-07T12:50:40.704Z,8.32
2023-10-07T12:53:11.974Z,6.57
2023-10-07T12:55:40.522Z,10.15
2023-10-07T12:58:10.425Z,4.85
2023-10-07T13:00:37.714Z,4.78
2023-10-07T13:03:08.573Z,6.00
2023-10-07T13:05:39.242Z,7.25
2023-10-07T13:08:13.640Z,7.00
2023-10-07T13:10:41.465Z,8.57
2023-10-07T13:13:09.111Z,9.82
2023-10-07T13:15:36.733Z,9.63
2023-10-07T13:18:04.279Z,10.90
2023-10-07T13:20:34.914Z,6.40
2023-10-07T13:23:04.812Z,7.15
2023-10-07T13:25:34.791Z,6.25
2023-10-07T13:28:03.186Z,5.40
2023-10-07T13:30:31.420Z,6.03
2023-10-07T13:32:59.114Z,6.85
2023-10-07T13:35:28.844Z,6.72
2023-10-07T13:37:58.156Z,5.90
2023-10-07T13:40:25.408Z,5.55
2023-10-07T13:42:54.446Z,4.63
2023-10-07T13:45:23.064Z,6.10
2023-10-07T13:47:50.868Z,10.02
2023-10-07T13:50:22.000Z,6.13
2023-10-07T13:52:59.892Z,6.90
2023-10-07T13:55:35.080Z,5.63
2023-10-07T13:58:02.258Z,8.48
2023-10-07T14:00:35.740Z,6.05
2023-10-07T14:03:07.277Z,7.15
2023-10-07T14:05:37.694Z,6.68
2023-10-07T14:08:17.256Z,4.68
2023-10-07T14:10:49.123Z,7.13
2023-10-07T14:13:16.576Z,4.13
2023-10-07T14:15:43.471Z,8.68
2023-10-07T14:18:10.568Z,9.05
2023-10-07T14:20:37.600Z,6.50
2023-10-07T14:23:04.738Z,5.72
2023-10-07T14:25:31.643Z,7.55
2023-10-07T14:27:59.925Z,7.13
2023-10-07T14:30:30.198Z,5.38
2023-10-07T14:32:57.494Z,7.80
2023-10-07T14:35:24.521Z,7.53
2023-10-07T14:37:51.437Z,6.03
2023-10-07T14:40:19.252Z,5.85
2023-10-07T14:42:47.462Z,9.45
2023-10-07T14:45:14.469Z,5.50
2023-10-07T14:47:41.730Z,5.15
2023-10-07T14:50:09.031Z,7.25
2023-10-07T14:52:37.096Z,15.30
2023-10-07T14:55:07.599Z,7.93
2023-10-07T14:57:36.362Z,5.63
2023-10-07T15:00:12.118Z,7.82
2023-10-07T15:02:40.571Z,7.55
2023-10-07T15:05:09.675Z,6.28
2023-10-07T15:07:36.804Z,13.40
2023-10-07T15:10:05.700Z,11.95
2023-10-07T15:12:33.574Z,5.32
2023-10-07T15:15:00.474Z,6.32
2023-10-07T15:17:27.407Z,4.05
2023-10-07T15:19:54.950Z,6.30
2023-10-07T15:22:22.160Z,6.28
2023-10-07T15:24:50.521Z,4.43
2023-10-07T15:27:17.759Z,8.25
2023-10-07T15:29:44.643Z,9.05
2023-10-07T15:32:14.388Z,5.95
2023-10-07T15:34:41.302Z,6.78
2023-10-07T15:37:08.164Z,5.60
2023-10-07T15:39:36.157Z,11.68
2023-10-07T15:42:03.273Z,5.25
2023-10-07T15:44:30.184Z,5.53
2023-10-07T15:46:57.249Z,6.07
2023-10-07T15:49:24.239Z,6.88
2023-10-07T15:51:52.997Z,7.03
2023-10-07T15:54:20.599Z,7.63
2023-10-07T15:56:47.535Z,6.95
2023-10-07T15:59:15.526Z,9.73
2023-10-07T16:01:48.205Z,6.75
2023-10-07T16:04:16.486Z,6.47
2023-10-07T16:06:47.839Z,6.43
2023-10-07T16:09:15.589Z,5.03
2023-10-07T16:11:43.205Z,4.60
2023-10-07T16:14:11.381Z,9.30
2023-10-07T16:16:39.200Z,7.05
2023-10-07T16:19:08.104Z,5.60
2023-10-07T16:21:39.593Z,6.13
2023-10-07T16:24:12.487Z,5.78
2023-10-07T16:26:40.711Z,6.22
2023-10-07T16:29:08.710Z,4.03
2023-10-07T16:31:36.356Z,7.88
2023-10-07T16:34:04.091Z,6.70
2023-10-07T16:36:31.665Z,5.95
2023-10-07T16:39:01.390Z,6.22
2023-10-07T16:41:30.030Z,6.32
2023-10-07T16:43:57.438Z,9.57
2023-10-07T16:46:26.538Z,7.85
2023-10-07T16:48:54.049Z,5.70
2023-10-07T16:51:21.316Z,7.13
2023-10-07T16:53:48.910Z,5.93
2023-10-07T16:56:16.442Z,4.28
2023-10-07T16:58:44.354Z,5.80
2023-10-07T17:01:13.222Z,4.82
2023-10-07T17:03:40.724Z,7.97
2023-10-07T17:06:09.930Z,6.53
2023-10-07T17:08:37.627Z,5.75
2023-10-07T17:11:05.158Z,5.88
2023-10-07T17:13:32.223Z,5.97
2023-10-07T17:16:00.224Z,7.25
2023-10-07T17:18:28.518Z,9.38
2023-10-07T17:20:59.750Z,7.43
2023-10-07T17:23:28.133Z,7.78
2023-10-07T17:25:56.187Z,6.18
2023-10-07T17:28:23.996Z,9.40
2023-10-07T17:30:51.365Z,6.35
2023-10-07T17:33:21.997Z,6.15
2023-10-07T17:35:49.609Z,6.30
2023-10-07T17:38:16.882Z,10.75
2023-10-07T17:40:44.336Z,8.40
2023-10-07T17:43:11.835Z,5.72
2023-10-07T17:45:46.037Z,8.05
2023-10-07T17:48:13.554Z,5.18
2023-10-07T17:50:41.785Z,5.20
2023-10-07T17:53:10.614Z,5.63
2023-10-07T17:55:38.186Z,9.93
2023-10-07T17:58:05.881Z,10.55
2023-10-07T18:00:34.996Z,5.75
2023-10-07T18:03:03.787Z,8.88
2023-10-07T18:05:31.954Z,8.82
2023-10-07T18:07:58.984Z,4.82
2023-10-07T18:10:30.354Z,8.82
2023-10-07T18:12:58.283Z,6.93
2023-10-07T18:15:25.632Z,5.15
2023-10-07T18:17:53.041Z,5.25
2023-10-07T18:20:20.164Z,5.63
2023-10-07T18:22:55.496Z,8.55
2023-10-07T18:25:23.202Z,6.20
2023-10-07T18:27:51.320Z,8.15
2023-10-07T18:30:20.235Z,6.43
2023-10-07T18:32:51.478Z,8.35
2023-10-07T18:35:19.078Z,6.68
2023-10-07T18:37:46.419Z,8.90
2023-10-07T18:40:18.268Z,10.15
2023-10-07T18:42:47.167Z,9.35
2023-10-07T18:45:14.848Z,5.80
2023-10-07T18:47:42.793Z,6.80
2023-10-07T18:50:10.404Z,7.68
2023-10-07T18:52:37.441Z,5.13
2023-10-07T18:55:04.825Z,6.85
2023-10-07T18:57:32.043Z,5.95
2023-10-07T18:59:59.432Z,6.22
2023-10-07T19:02:26.462Z,7.50
2023-10-07T19:04:53.851Z,6.20
2023-10-07T19:07:21.140Z,11.13
2023-10-07T19:09:48.559Z,5.95
2023-10-07T19:12:18.210Z,7.10
2023-10-07T19:14:48.169Z,12.85
2023-10-07T19:17:15.179Z,5.38
2023-10-07T19:19:43.155Z,4.90
2023-10-07T19:22:10.643Z,5.30
2023-10-07T19:24:38.069Z,6.07
2023-10-07T19:27:05.161Z,5.10
2023-10-07T19:29:32.113Z,8.57
2023-10-07T19:32:00.041Z,9.65
2023-10-07T19:34:27.200Z,10.27
2023-10-07T19:36:54.594Z,6.53
2023-10-07T19:39:39.723Z,4.57
2023-10-07T19:42:09.145Z,9.25
2023-10-07T19:44:36.164Z,9.80
2023-10-07T19:47:04.318Z,6.47
2023-10-07T19:49:31.647Z,7.72
2023-10-07T19:51:59.140Z,6.30
2023-10-07T19:54:26.704Z,8.50
2023-10-07T19:56:53.597Z,7.30
2023-10-07T19:59:21.330Z,9.60
2023-10-07T20:01:49.920Z,7.28
2023-10-07T20:04:17.309Z,7.35
2023-10-07T20:06:44.683Z,6.68
2023-10-07T20:09:12.594Z,5.57
2023-10-07T20:11:41.627Z,10.25
2023-10-07T20:14:08.641Z,5.00
2023-10-07T20:16:36.058Z,5.25
2023-10-07T20:19:06.379Z,5.55
2023-10-07T20:21:34.610Z,6.18
2023-10-07T20:24:01.514Z,6.65
2023-10-07T20:26:29.276Z,9.20
2023-10-07T20:28:56.188Z,6.32
2023-10-07T20:31:23.607Z,8.65
2023-10-07T20:33:51.096Z,4.50
2023-10-07T20:36:18.376Z,7.65
2023-10-07T20:38:45.943Z,5.15
2023-10-07T20:41:14.100Z,7.03
2023-10-07T20:43:41.213Z,9.20
2023-10-07T20:46:08.310Z,10.65
2023-10-07T20:48:35.921Z,6.60
2023-10-07T20:51:08.310Z,6.88
2023-10-07T20:53:36.843Z,4.90
2023-10-07T20:56:05.217Z,6.28
2023-10-07T20:58:32.238Z,9.80
2023-10-07T21:00:59.792Z,5.35
2023-10-07T21:03:27.344Z,6.80
2023-10-07T21:05:55.219Z,9.88
2023-10-07T21:08:22.860Z,6.80
2023-10-07T21:10:50.237Z,6.18
2023-10-07T21:13:17.882Z,4.85
2023-10-07T21:15:44.914Z,5.80
2023-10-07T21:18:12.246Z,6.95
2023-10-07T21:20:44.281Z,11.43
2023-10-07T21:23:12.610Z,6.10
2023-10-07T21:25:44.306Z,11.60
2023-10-07T21:28:12.309Z,7.03
2023-10-07T21:30:40.303Z,7.57
2023-10-07T21:33:08.819Z,6.60
2023-10-07T21:35:43.316Z,7.43
2023-10-07T21:38:12.599Z,10.98
2023-10-07T21:40:42.115Z,5.63
2023-10-07T21:43:10.307Z,4.70
2023-10-07T21:45:38.356Z,4.57
2023-10-07T21:48:06.486Z,6.80
2023-10-07T21:50:37.095Z,6.88
2023-10-07T21:53:05.294Z,4.40
2023-10-07T21:55:34.336Z,7.72
2023-10-07T21:58:03.082Z,9.50
2023-10-07T22:00:30.499Z,4.80
2023-10-07T22:02:59.758Z,6.65
2023-10-07T22:05:29.265Z,5.60
2023-10-07T22:07:57.783Z,4.82
2023-10-07T22:10:27.115Z,5.95
2023-10-07T22:12:54.932Z,7.00
2023-10-07T22:15:22.600Z,6.05
2023-10-07T22:17:53.072Z,5.50
2023-10-07T22:20:23.071Z,7.57
2023-10-07T22:22:51.381Z,5.43
2023-10-07T22:25:18.777Z,6.15
2023-10-07T22:27:47.708Z,4.72
2023-10-07T22:30:22.532Z,5.57
2023-10-07T22:32:49.947Z,4.50
2023-10-07T22:35:35.070Z,5.05
2023-10-07T22:38:14.313Z,5.35
2023-10-07T22:40:42.369Z,5.13
2023-10-07T22:43:16.075Z,7.63
2023-10-07T22:45:46.159Z,5.47
2023-10-07T22:48:21.199Z,10.02
2023-10-07T22:51:10.836Z,5.75
2023-10-07T22:53:51.045Z,4.95
2023-10-07T22:56:20.892Z,17.98
2023-10-07T22:58:50.000Z,12.18
2023-10-07T23:01:40.757Z,6.05
2023-10-07T23:04:15.442Z,5.68
2023-10-07T23:06:56.813Z,4.40
2023-10-07T23:10:00.882Z,6.55
2023-10-07T23:12:32.137Z,6.40
2023-10-07T23:15:00.259Z,5.70
2023-10-07T23:17:32.792Z,6.65
2023-10-07T23:20:08.941Z,7.28
2023-10-07T23:22:41.212Z,7.22
2023-10-07T23:25:19.841Z,8.88
2023-10-07T23:27:50.594Z,10.27
2023-10-07T23:30:28.500Z,7.57
2023-10-07T23:33:00.222Z,5.82
2023-10-07T23:35:32.318Z,9.77
2023-10-07T23:38:02.537Z,6.50
2023-10-07T23:40:31.300Z,6.85
2023-10-07T23:43:05.752Z,7.20
2023-10-07T23:45:40.513Z,6.22
2023-10-07T23:48:13.259Z,4.20
2023-10-07T23:50:43.760Z,6.18
2023-10-07T23:53:25.680Z,6.15
2023-10-07T23:56:12.585Z,5.95
2023-10-07T23:58:51.446Z,7.22
